Time;durP1;ratioP1;P1;durP2;ratioP2;P2;SDS_P1;SDS_P2;PMS_P1;PMS_P2;Temp;Humidity;BMP_temperature;BMP_pressure;BME280_temperature;BME280_humidity;BME280_pressure;Samples;Min_cycle;Max_cycle;Signal;HPM_P1;HPM_P2
2021/08/24 00:00:59;;;;;;;5.93;1.50;;;16.20;99.90;;;;;;5074720;28;20563;-73
2021/08/24 00:03:26;;;;;;;2.00;1.20;;;16.20;99.90;;;;;;5074850;28;20465;-73
2021/08/24 00:05:53;;;;;;;2.00;1.40;;;16.10;99.90;;;;;;5074773;28;20466;-74
2021/08/24 00:08:19;;;;;;;3.43;1.30;;;16.10;99.90;;;;;;5074644;28;20926;-73
2021/08/24 00:10:50;;;;;;;2.27;1.33;;;16.00;99.90;;;;;;5074341;28;20473;-73
2021/08/24 00:13:18;;;;;;;4.43;1.67;;;16.00;99.90;;;;;;5075505;28;20438;-73
2021/08/24 00:15:46;;;;;;;2.83;1.63;;;15.90;99.90;;;;;;5075043;28;20454;-73
2021/08/24 00:18:14;;;;;;;1.97;1.53;;;15.90;99.90;;;;;;5074999;28;20462;-72
2021/08/24 00:20:43;;;;;;;1.63;1.10;;;15.80;99.90;;;;;;5074805;28;20494;-73
2021/08/24 00:23:13;;;;;;;2.50;1.40;;;15.70;99.90;;;;;;5074313;28;20463;-73
2021/08/24 00:25:40;;;;;;;1.93;1.57;;;15.70;99.90;;;;;;5074159;28;20541;-73
2021/08/24 00:28:09;;;;;;;1.97;1.50;;;15.60;99.90;;;;;;5074383;28;20459;-73
2021/08/24 00:30:38;;;;;;;2.93;1.20;;;15.50;99.90;;;;;;5073897;28;20462;-73
2021/08/24 00:33:05;;;;;;;3.50;1.50;;;15.50;99.90;;;;;;5074007;28;20906;-73
2021/08/24 00:35:32;;;;;;;3.50;1.70;;;15.40;99.90;;;;;;5074335;28;20499;-74
2021/08/24 00:37:59;;;;;;;3.27;1.60;;;15.40;99.90;;;;;;5073927;28;20458;-73
2021/08/24 00:40:25;;;;;;;3.50;1.20;;;15.30;99.90;;;;;;5073798;28;20486;-73
2021/08/24 00:42:52;;;;;;;5.77;1.50;;;15.20;99.90;;;;;;5073614;28;20501;-73
2021/08/24 00:45:21;;;;;;;1.93;1.30;;;15.20;99.90;;;;;;5073920;28;20567;-73
2021/08/24 00:47:50;;;;;;;1.60;1.20;;;15.20;99.90;;;;;;5074281;28;20814;-73
2021/08/24 00:50:23;;;;;;;2.47;1.33;;;15.20;99.90;;;;;;5073714;28;20454;-73
2021/08/24 00:52:50;;;;;;;3.30;1.60;;;15.10;99.90;;;;;;5073831;28;20450;-74
2021/08/24 00:55:20;;;;;;;5.23;2.00;;;15.00;99.90;;;;;;5073674;28;20458;-73
2021/08/24 00:57:50;;;;;;;5.80;2.07;;;15.00;99.90;;;;;;5074415;28;20491;-73
2021/08/24 01:00:17;;;;;;;2.70;2.00;;;14.90;99.90;;;;;;5073594;28;20470;-74
2021/08/24 01:02:45;;;;;;;4.57;1.50;;;14.90;99.90;;;;;;5079476;28;20469;-74
2021/08/24 01:05:13;;;;;;;2.03;1.33;;;14.90;99.90;;;;;;5080969;28;20783;-74
2021/08/24 01:07:46;;;;;;;2.63;1.40;;;14.80;99.90;;;;;;5080660;28;20462;-74
2021/08/24 01:10:19;;;;;;;2.40;1.63;;;14.80;99.90;;;;;;5080299;28;20879;-74
2021/08/24 01:12:53;;;;;;;3.00;1.73;;;14.70;99.90;;;;;;5080947;28;20468;-74
2021/08/24 01:15:26;;;;;;;2.90;2.00;;;14.70;99.90;;;;;;5080458;28;20449;-74
2021/08/24 01:18:00;;;;;;;2.83;1.60;;;14.60;99.90;;;;;;5081057;28;20446;-73
2021/08/24 01:20:44;;;;;;;2.90;1.40;;;14.60;99.90;;;;;;5080794;28;20477;-73
2021/08/24 01:23:44;;;;;;;2.30;1.67;;;14.60;99.90;;;;;;5080659;28;20438;-73
2021/08/24 01:26:22;;;;;;;6.00;1.90;;;14.50;99.90;;;;;;5080608;28;20450;-73
2021/08/24 01:29:02;;;;;;;1.97;1.70;;;14.50;99.90;;;;;;5080291;28;20937;-73
2021/08/24 01:31:54;;;;;;;3.17;1.47;;;14.40;99.90;;;;;;5080904;28;20785;-74
2021/08/24 01:34:40;;;;;;;4.07;1.90;;;14.30;99.90;;;;;;5080091;28;20438;-73
2021/08/24 01:37:13;;;;;;;2.30;1.73;;;14.30;99.90;;;;;;5080364;28;20438;-74
2021/08/24 01:39:44;;;;;;;3.10;1.70;;;14.30;99.90;;;;;;5080199;28;20554;-74
2021/08/24 01:42:18;;;;;;;2.33;1.70;;;14.30;99.90;;;;;;5080314;28;20481;-74
2021/08/24 01:44:55;;;;;;;2.30;1.47;;;14.20;99.90;;;;;;5081457;28;20434;-73
2021/08/24 01:47:43;;;;;;;2.57;1.77;;;14.20;99.90;;;;;;5080852;28;20897;-74
2021/08/24 01:50:14;;;;;;;5.30;1.90;;;14.20;99.90;;;;;;5080394;28;20761;-74
2021/08/24 01:52:47;;;;;;;3.77;1.73;;;14.10;99.90;;;;;;5080323;28;20438;-74
2021/08/24 01:55:21;;;;;;;6.30;1.57;;;14.10;99.90;;;;;;5080317;28;20890;-75
2021/08/24 01:57:52;;;;;;;5.40;1.60;;;14.10;99.90;;;;;;5079968;28;20910;-74
2021/08/24 02:00:19;;;;;;;3.23;2.00;;;14.10;99.90;;;;;;5080405;28;20493;-74
2021/08/24 02:02:50;;;;;;;3.10;2.10;;;14.00;99.90;;;;;;5080943;28;20468;-74
2021/08/24 02:05:22;;;;;;;2.90;1.53;;;14.00;99.90;;;;;;5081198;28;20836;-74
2021/08/24 02:07:56;;;;;;;3.07;1.60;;;14.00;99.90;;;;;;5080926;28;20926;-74
2021/08/24 02:10:25;;;;;;;4.60;2.50;;;14.00;99.90;;;;;;5080741;28;20434;-74
2021/08/24 02:12:55;;;;;;;3.03;1.53;;;14.00;99.90;;;;;;5078901;28;20450;-74
2021/08/24 02:15:26;;;;;;;2.10;1.70;;;13.90;99.90;;;;;;5077572;28;20557;-74
2021/08/24 02:17:53;;;;;;;2.70;1.70;;;13.90;99.90;;;;;;5078501;28;20454;-74
2021/08/24 02:20:23;;;;;;;2.30;1.93;;;13.90;99.90;;;;;;5077318;28;20485;-74
2021/08/24 02:22:57;;;;;;;2.73;1.60;;;13.80;99.90;;;;;;5076625;28;20917;-74
2021/08/24 02:25:29;;;;;;;4.03;1.90;;;13.90;99.90;;;;;;5078084;28;20463;-75
2021/08/24 02:28:03;;;;;;;4.77;1.57;;;13.80;99.90;;;;;;5077168;28;20442;-75
2021/08/24 02:30:32;;;;;;;3.00;1.50;;;13.80;99.90;;;;;;5076571;28;20438;-74
2021/08/24 02:33:00;;;;;;;4.00;1.90;;;13.80;99.90;;;;;;5077033;28;20790;-74
2021/08/24 02:35:33;;;;;;;2.50;1.90;;;13.80;99.90;;;;;;5077203;28;20469;-74
2021/08/24 02:38:06;;;;;;;2.53;1.73;;;13.80;99.90;;;;;;5077098;28;20904;-74
2021/08/24 02:40:42;;;;;;;2.53;1.43;;;13.80;99.90;;;;;;5077533;28;20466;-74
2021/08/24 02:43:18;;;;;;;3.83;2.00;;;13.80;99.90;;;;;;5077552;28;20489;-74
2021/08/24 02:45:50;;;;;;;2.87;1.73;;;13.80;99.90;;;;;;5077085;28;20438;-74
2021/08/24 02:48:17;;;;;;;2.80;1.83;;;13.70;99.90;;;;;;5077631;28;20442;-74
2021/08/24 02:50:45;;;;;;;3.13;1.63;;;13.70;99.90;;;;;;5077160;28;20919;-74
2021/08/24 02:53:14;;;;;;;3.00;1.83;;;13.70;99.90;;;;;;5076930;28;20748;-74
2021/08/24 02:55:41;;;;;;;2.30;1.60;;;13.70;99.90;;;;;;5076845;28;20455;-74
2021/08/24 02:58:08;;;;;;;3.23;1.50;;;13.70;99.90;;;;;;5076781;28;20515;-74
2021/08/24 03:00:35;;;;;;;2.40;2.00;;;13.70;99.90;;;;;;5076491;28;20497;-74
2021/08/24 03:03:01;;;;;;;2.93;1.90;;;13.70;99.90;;;;;;5075761;28;20492;-74
2021/08/24 03:05:28;;;;;;;3.13;1.93;;;13.60;99.90;;;;;;5076104;28;20463;-74
2021/08/24 03:07:55;;;;;;;3.40;1.90;;;13.60;99.90;;;;;;5075941;28;20516;-74
2021/08/24 03:10:25;;;;;;;2.77;1.67;;;13.60;99.90;;;;;;5075889;28;20454;-74
2021/08/24 03:13:04;;;;;;;3.00;1.83;;;13.60;99.90;;;;;;5075694;28;20485;-74
2021/08/24 03:15:38;;;;;;;3.80;2.10;;;13.60;99.90;;;;;;5076530;28;20758;-74
2021/08/24 03:18:11;;;;;;;4.27;1.90;;;13.60;99.90;;;;;;5076363;28;20438;-74
2021/08/24 03:20:42;;;;;;;2.13;1.80;;;13.60;99.90;;;;;;5076205;28;20478;-74
2021/08/24 03:23:12;;;;;;;2.80;1.93;;;13.50;99.90;;;;;;5076138;28;20748;-74
2021/08/24 03:25:42;;;;;;;3.60;1.50;;;13.50;99.90;;;;;;5075573;28;20516;-74
2021/08/24 03:28:14;;;;;;;4.13;2.00;;;13.50;99.90;;;;;;5075872;28;20458;-74
2021/08/24 03:30:40;;;;;;;5.27;2.30;;;13.50;99.90;;;;;;5076091;28;20435;-74
2021/08/24 03:33:08;;;;;;;3.40;1.70;;;13.50;99.90;;;;;;5075520;28;20469;-75
2021/08/24 03:35:35;;;;;;;4.17;2.37;;;13.50;99.90;;;;;;5075642;28;20735;-73
2021/08/24 03:38:02;;;;;;;4.80;2.10;;;13.40;99.90;;;;;;5075881;28;20576;-74
2021/08/24 03:40:29;;;;;;;3.30;1.93;;;13.40;99.90;;;;;;5075514;28;20794;-74
2021/08/24 03:42:57;;;;;;;3.27;2.00;;;13.40;99.90;;;;;;5075815;28;20497;-74
2021/08/24 03:45:25;;;;;;;6.13;2.17;;;13.40;99.90;;;;;;5075741;28;20454;-74
2021/08/24 03:47:51;;;;;;;2.70;2.00;;;13.40;99.90;;;;;;5076659;28;20462;-73
2021/08/24 03:50:19;;;;;;;2.77;1.93;;;13.40;99.90;;;;;;5076224;28;20520;-73
2021/08/24 03:52:49;;;;;;;3.50;2.20;;;13.40;99.90;;;;;;5076930;28;20459;-74
2021/08/24 03:55:17;;;;;;;3.00;1.63;;;13.40;99.90;;;;;;5076298;28;20454;-74
2021/08/24 03:57:44;;;;;;;3.47;2.03;;;13.40;99.90;;;;;;5077082;28;20496;-74
2021/08/24 04:00:13;;;;;;;3.23;1.73;;;13.40;99.90;;;;;;5077221;28;20482;-74
2021/08/24 04:02:40;;;;;;;3.10;1.80;;;13.40;99.90;;;;;;5077077;28;20477;-74
2021/08/24 04:05:10;;;;;;;2.50;2.10;;;13.40;99.90;;;;;;5077079;28;20556;-74
2021/08/24 04:07:37;;;;;;;2.63;2.13;;;13.40;99.90;;;;;;5077521;28;20469;-74
2021/08/24 04:10:04;;;;;;;4.40;2.50;;;13.40;99.90;;;;;;5075647;28;20454;-74
2021/08/24 04:12:31;;;;;;;2.77;2.00;;;13.40;99.90;;;;;;5077226;28;20469;-74
2021/08/24 04:14:58;;;;;;;3.20;1.80;;;13.40;99.90;;;;;;5076623;28;20469;-74
2021/08/24 04:17:26;;;;;;;2.80;2.00;;;13.40;99.90;;;;;;5076616;28;20450;-74
2021/08/24 04:19:53;;;;;;;3.60;2.40;;;13.40;99.90;;;;;;5076173;28;20458;-74
2021/08/24 04:22:22;;;;;;;5.20;1.90;;;13.40;99.90;;;;;;5076561;28;20515;-74
2021/08/24 04:24:48;;;;;;;3.77;1.97;;;13.40;99.90;;;;;;5076112;28;20450;-74
2021/08/24 04:27:15;;;;;;;3.23;1.70;;;13.40;99.90;;;;;;5076332;28;20462;-74
2021/08/24 04:29:42;;;;;;;2.73;2.00;;;13.40;99.90;;;;;;5076018;28;20524;-74
2021/08/24 04:32:12;;;;;;;4.97;2.30;;;13.40;99.90;;;;;;5075661;28;20469;-74
2021/08/24 04:34:40;;;;;;;4.40;1.87;;;13.40;99.90;;;;;;5075111;28;20462;-74
2021/08/24 04:37:07;;;;;;;4.50;2.00;;;13.40;99.90;;;;;;5074688;28;20910;-74
2021/08/24 04:39:33;;;;;;;3.30;2.20;;;13.40;99.90;;;;;;5075234;28;20465;-74
2021/08/24 04:42:00;;;;;;;3.83;2.27;;;13.40;99.90;;;;;;5075795;28;20814;-74
2021/08/24 04:44:27;;;;;;;4.17;2.27;;;13.40;99.90;;;;;;5075015;28;20732;-74
2021/08/24 04:46:53;;;;;;;7.53;2.40;;;13.40;99.90;;;;;;5075517;28;20752;-74
2021/08/24 04:49:21;;;;;;;3.10;1.97;;;13.40;99.90;;;;;;5075895;28;20462;-74
2021/08/24 04:51:49;;;;;;;4.20;2.77;;;13.50;99.90;;;;;;5075374;28;20478;-74
2021/08/24 04:54:17;;;;;;;12.77;9.97;;;13.50;99.90;;;;;;5076309;28;20476;-74
2021/08/24 04:56:44;;;;;;;4.67;3.43;;;13.50;99.90;;;;;;5076759;28;20900;-76
2021/08/24 04:59:10;;;;;;;5.93;2.07;;;13.50;99.90;;;;;;5076321;28;20458;-75
2021/08/24 05:01:37;;;;;;;3.50;2.07;;;13.50;99.90;;;;;;5076633;28;20496;-75
2021/08/24 05:04:04;;;;;;;3.90;2.33;;;13.60;99.90;;;;;;5076298;28;20465;-78
2021/08/24 05:06:31;;;;;;;3.97;1.80;;;13.60;99.90;;;;;;5076144;28;20826;-74
2021/08/24 05:08:59;;;;;;;3.10;2.13;;;13.60;99.90;;;;;;5077756;28;20458;-74
2021/08/24 05:11:26;;;;;;;5.20;2.33;;;13.60;99.90;;;;;;5077556;28;20458;-74
2021/08/24 05:13:53;;;;;;;4.07;1.90;;;13.60;99.90;;;;;;5077313;28;20515;-75
2021/08/24 05:16:19;;;;;;;3.33;1.83;;;13.60;99.90;;;;;;5077399;28;20792;-74
2021/08/24 05:18:46;;;;;;;2.43;1.97;;;13.70;99.90;;;;;;5078631;28;20936;-74
2021/08/24 05:21:14;;;;;;;7.30;2.23;;;13.70;99.90;;;;;;5078000;28;20489;-74
2021/08/24 05:23:42;;;;;;;5.90;2.13;;;13.70;99.90;;;;;;5077850;28;20454;-74
2021/08/24 05:26:14;;;;;;;3.53;2.03;;;13.70;99.90;;;;;;5077222;28;20541;-74
2021/08/24 05:28:42;;;;;;;4.70;2.10;;;13.80;99.90;;;;;;5077517;28;20435;-74
2021/08/24 05:31:09;;;;;;;1.90;1.60;;;13.80;99.90;;;;;;5078828;28;20482;-74
2021/08/24 05:33:35;;;;;;;2.33;1.73;;;13.90;99.90;;;;;;5079948;28;20515;-74
2021/08/24 05:36:03;;;;;;;6.73;2.67;;;13.90;99.90;;;;;;5078708;28;20457;-74
2021/08/24 05:38:31;;;;;;;2.93;1.80;;;14.00;99.90;;;;;;5080550;28;20458;-73
2021/08/24 05:40:58;;;;;;;2.70;2.27;;;14.00;99.90;;;;;;5078144;28;20493;-74
2021/08/24 05:43:27;;;;;;;2.27;1.67;;;14.10;99.90;;;;;;5076317;28;20478;-74
2021/08/24 05:45:55;;;;;;;2.47;1.90;;;14.10;99.90;;;;;;5077955;28;20564;-74
2021/08/24 05:48:22;;;;;;;4.73;2.00;;;14.20;99.90;;;;;;5079708;28;20523;-74
2021/08/24 05:50:49;;;;;;;4.77;2.37;;;14.20;99.90;;;;;;5081191;28;20493;-74
2021/08/24 05:53:16;;;;;;;4.20;1.63;;;14.30;99.90;;;;;;5080623;28;20468;-74
2021/08/24 05:55:43;;;;;;;2.90;1.97;;;14.40;99.90;;;;;;5080711;28;20529;-76
2021/08/24 05:58:10;;;;;;;3.10;1.80;;;14.40;99.90;;;;;;5080580;28;20807;-74
2021/08/24 06:00:38;;;;;;;4.50;1.50;;;14.50;99.90;;;;;;5080917;28;20489;-74
2021/08/24 06:03:05;;;;;;;2.30;1.70;;;14.50;99.90;;;;;;5081920;28;20454;-75
2021/08/24 06:05:32;;;;;;;4.57;2.00;;;14.60;99.90;;;;;;5080580;28;20454;-74
2021/08/24 06:07:59;;;;;;;2.23;1.93;;;14.70;99.90;;;;;;5080203;28;20454;-74
2021/08/24 06:10:25;;;;;;;4.03;1.83;;;14.70;99.90;;;;;;5079511;28;20476;-74
2021/08/24 06:12:52;;;;;;;1.90;1.50;;;14.80;99.90;;;;;;5079057;28;20454;-74
2021/08/24 06:15:19;;;;;;;2.03;1.53;;;14.90;99.90;;;;;;5079680;28;20458;-75
2021/08/24 06:17:47;;;;;;;2.43;1.60;;;14.90;99.90;;;;;;5079722;28;20485;-75
2021/08/24 06:20:16;;;;;;;3.00;1.60;;;15.00;99.90;;;;;;5079957;28;20522;-75
2021/08/24 06:22:42;;;;;;;2.07;1.53;;;15.00;99.90;;;;;;5079147;28;20863;-75
2021/08/24 06:25:10;;;;;;;3.23;1.60;;;15.10;99.90;;;;;;5079451;28;20466;-74
2021/08/24 06:27:37;;;;;;;2.17;1.50;;;15.20;99.90;;;;;;5078527;28;20769;-74
2021/08/24 06:30:05;;;;;;;3.43;1.83;;;15.30;99.90;;;;;;5079166;28;20462;-74
2021/08/24 06:32:36;;;;;;;2.43;1.40;;;15.30;99.90;;;;;;5078464;28;20450;-75
2021/08/24 06:35:06;;;;;;;2.40;1.70;;;15.40;99.90;;;;;;5078818;28;20836;-74
2021/08/24 06:37:32;;;;;;;4.60;1.50;;;15.50;99.90;;;;;;5077752;28;20450;-74
2021/08/24 06:39:59;;;;;;;2.10;1.30;;;15.50;99.90;;;;;;5078090;28;20462;-75
2021/08/24 06:42:26;;;;;;;2.43;1.53;;;15.60;99.90;;;;;;5077819;28;20493;-75
2021/08/24 06:44:53;;;;;;;2.83;2.07;;;15.60;99.90;;;;;;5077926;28;20457;-74
2021/08/24 06:47:20;;;;;;;5.60;3.03;;;15.70;99.90;;;;;;5076942;28;20458;-75
2021/08/24 06:49:47;;;;;;;1.80;1.30;;;15.80;99.90;;;;;;5077057;28;20454;-75
2021/08/24 06:52:15;;;;;;;1.80;1.40;;;15.90;99.90;;;;;;5076423;28;20928;-74
2021/08/24 06:54:41;;;;;;;3.10;1.70;;;15.90;99.90;;;;;;5076245;28;20458;-74
2021/08/24 06:57:08;;;;;;;10.70;2.00;;;16.00;99.90;;;;;;5076884;28;20473;-74
2021/08/24 06:59:38;;;;;;;3.53;1.33;;;16.10;99.90;;;;;;5076380;28;20462;-75
2021/08/24 07:02:06;;;;;;;3.17;1.53;;;16.20;99.90;;;;;;5076714;28;20474;-75
2021/08/24 07:04:34;;;;;;;9.63;2.20;;;16.20;99.90;;;;;;5076819;28;20458;-76
2021/08/24 07:07:00;;;;;;;2.73;1.87;;;16.30;99.90;;;;;;5076179;28;20488;-75
2021/08/24 07:09:29;;;;;;;2.40;1.50;;;16.30;99.90;;;;;;5076580;28;20469;-75
2021/08/24 07:11:55;;;;;;;3.40;1.10;;;16.40;99.90;;;;;;5076556;28;20461;-74
2021/08/24 07:14:22;;;;;;;2.90;1.60;;;16.50;99.90;;;;;;5077731;28;20533;-74
2021/08/24 07:16:49;;;;;;;4.40;1.50;;;16.60;99.90;;;;;;5078439;28;20465;-74
2021/08/24 07:19:15;;;;;;;1.50;1.07;;;16.60;99.90;;;;;;5078894;28;20454;-74
2021/08/24 07:21:42;;;;;;;4.90;1.60;;;16.70;99.90;;;;;;5078586;28;20852;-75
2021/08/24 07:24:09;;;;;;;3.40;1.37;;;16.70;99.90;;;;;;5077867;28;20450;-73
2021/08/24 07:26:37;;;;;;;2.93;1.50;;;16.80;99.90;;;;;;5078409;28;20783;-74
2021/08/24 07:29:04;;;;;;;3.60;1.70;;;16.90;99.90;;;;;;5076860;28;20457;-73
2021/08/24 07:31:33;;;;;;;1.90;1.40;;;17.00;99.90;;;;;;5076820;28;20584;-73
2021/08/24 07:34:00;;;;;;;3.30;2.40;;;17.10;99.90;;;;;;5076489;28;20535;-74
2021/08/24 07:36:27;;;;;;;3.90;1.90;;;17.20;99.90;;;;;;5076633;28;20534;-73
2021/08/24 07:38:54;;;;;;;1.70;1.30;;;17.20;99.90;;;;;;5075960;28;20462;-73
2021/08/24 07:41:20;;;;;;;2.57;1.37;;;17.30;99.90;;;;;;5074716;28;20549;-74
2021/08/24 07:43:49;;;;;;;1.80;1.30;;;17.30;99.90;;;;;;5075693;28;20462;-74
2021/08/24 07:46:15;;;;;;;1.60;1.10;;;17.40;99.90;;;;;;5076096;28;20484;-74
2021/08/24 07:48:42;;;;;;;1.70;1.33;;;17.40;99.90;;;;;;5075917;28;20458;-74
2021/08/24 07:51:09;;;;;;;5.80;1.70;;;17.50;99.90;;;;;;5075102;28;20450;-74
2021/08/24 07:53:36;;;;;;;2.90;1.30;;;17.60;99.90;;;;;;5075149;28;20455;-74
2021/08/24 07:56:04;;;;;;;4.10;1.10;;;17.60;99.90;;;;;;5075263;28;20454;-74
2021/08/24 07:58:31;;;;;;;4.50;1.50;;;17.70;99.90;;;;;;5074848;28;20553;-74
2021/08/24 08:01:00;;;;;;;4.40;2.00;;;17.80;99.90;;;;;;5074652;28;20458;-74
2021/08/24 08:03:27;;;;;;;1.87;1.30;;;17.80;99.90;;;;;;5074719;28;20556;-74
2021/08/24 08:05:53;;;;;;;4.00;1.50;;;17.90;99.90;;;;;;5075062;28;20466;-74
2021/08/24 08:08:20;;;;;;;2.70;1.27;;;18.00;99.90;;;;;;5074594;28;20467;-73
2021/08/24 08:10:47;;;;;;;2.90;1.40;;;18.00;99.90;;;;;;5074655;28;20554;-74
2021/08/24 08:13:14;;;;;;;2.40;1.50;;;18.00;99.90;;;;;;5075258;28;20555;-74
2021/08/24 08:15:40;;;;;;;2.40;1.23;;;18.10;99.90;;;;;;5075354;28;20821;-74
2021/08/24 08:18:09;;;;;;;2.00;1.27;;;18.10;99.90;;;;;;5075037;28;20543;-75
2021/08/24 08:20:44;;;;;;;3.40;1.20;;;18.10;99.90;;;;;;5074919;28;20516;-73
2021/08/24 08:23:13;;;;;;;1.77;1.20;;;18.20;99.90;;;;;;5076300;28;20497;-75
2021/08/24 08:25:41;;;;;;;4.27;1.77;;;18.30;99.90;;;;;;5075365;28;20485;-76
2021/08/24 08:28:08;;;;;;;3.03;1.40;;;18.40;99.90;;;;;;5074744;28;20922;-74
2021/08/24 08:30:36;;;;;;;3.37;1.20;;;18.40;99.90;;;;;;5074755;28;20454;-75
2021/08/24 08:33:05;;;;;;;1.73;1.23;;;18.50;99.90;;;;;;5075046;28;20446;-75
2021/08/24 08:35:33;;;;;;;2.83;1.30;;;18.70;99.90;;;;;;5074665;28;20454;-73
2021/08/24 08:38:00;;;;;;;4.00;1.30;;;18.70;99.90;;;;;;5074860;28;20454;-73
2021/08/24 08:40:38;;;;;;;2.30;1.70;;;18.80;99.90;;;;;;5073988;28;20825;-73
2021/08/24 08:43:14;;;;;;;2.23;1.30;;;18.90;99.90;;;;;;5073079;28;20791;-73
2021/08/24 08:45:46;;;;;;;1.43;1.17;;;18.90;99.90;;;;;;5073382;28;20495;-74
2021/08/24 08:48:30;;;;;;;2.00;1.57;;;19.00;99.90;;;;;;5073772;28;20450;-74
2021/08/24 08:51:06;;;;;;;1.90;1.60;;;19.00;99.90;;;;;;5074017;28;20488;-74
2021/08/24 08:53:40;;;;;;;2.93;1.17;;;19.00;99.90;;;;;;5073668;28;20469;-74
2021/08/24 08:56:15;;;;;;;1.50;1.23;;;19.00;99.90;;;;;;5073294;28;20442;-73
2021/08/24 08:58:51;;;;;;;2.53;1.70;;;19.10;99.90;;;;;;5073482;28;20455;-73
2021/08/24 09:01:23;;;;;;;1.60;1.10;;;19.10;99.90;;;;;;5073603;28;20438;-73
2021/08/24 09:03:54;;;;;;;3.37;1.90;;;19.20;99.90;;;;;;5073906;28;20434;-73
2021/08/24 09:06:26;;;;;;;2.80;1.10;;;19.30;99.90;;;;;;5074085;28;20462;-73
2021/08/24 09:08:56;;;;;;;2.60;1.43;;;19.40;99.90;;;;;;5074189;28;20840;-73
2021/08/24 09:11:32;;;;;;;1.57;1.20;;;19.50;99.90;;;;;;5073722;28;20449;-74
2021/08/24 09:14:05;;;;;;;4.07;1.40;;;19.60;99.90;;;;;;5073981;28;20442;-74
2021/08/24 09:16:35;;;;;;;2.57;1.47;;;19.70;99.90;;;;;;5074077;28;20442;-73
2021/08/24 09:19:09;;;;;;;4.90;3.70;;;19.70;99.90;;;;;;5073860;28;20458;-73
2021/08/24 09:21:40;;;;;;;2.03;1.63;;;19.80;99.90;;;;;;5073566;28;20462;-73
2021/08/24 09:24:09;;;;;;;2.50;1.57;;;19.80;99.90;;;;;;5077723;28;20447;-73
2021/08/24 09:26:48;;;;;;;3.17;1.47;;;19.80;99.90;;;;;;5077630;28;20458;-74
2021/08/24 09:29:17;;;;;;;2.60;1.27;;;19.90;99.90;;;;;;5078126;28;20809;-74
2021/08/24 09:31:44;;;;;;;3.10;1.30;;;19.90;99.90;;;;;;5076816;28;20516;-73
2021/08/24 09:34:13;;;;;;;3.70;1.43;;;20.00;99.90;;;;;;5077641;28;20560;-74
2021/08/24 09:36:41;;;;;;;3.10;1.70;;;20.10;99.90;;;;;;5077450;28;20793;-74
2021/08/24 09:39:09;;;;;;;2.57;1.20;;;20.10;99.90;;;;;;5077507;28;20465;-74
2021/08/24 09:41:37;;;;;;;2.60;1.50;;;20.10;99.90;;;;;;5077224;28;20825;-73
2021/08/24 09:44:21;;;;;;;6.73;2.00;;;20.10;99.90;;;;;;5076907;28;20445;-73
2021/08/24 09:46:49;;;;;;;4.10;3.40;;;20.10;99.90;;;;;;5077298;28;20802;-73
2021/08/24 09:49:35;;;;;;;2.90;1.50;;;20.10;99.90;;;;;;5076787;28;20461;-73
2021/08/24 09:52:06;;;;;;;2.50;1.37;;;20.20;99.90;;;;;;5077046;28;20438;-73
2021/08/24 09:54:37;;;;;;;2.03;1.47;;;20.30;99.90;;;;;;5076938;28;20450;-73
2021/08/24 09:57:18;;;;;;;2.00;1.50;;;20.40;99.90;;;;;;5076721;28;20455;-74
2021/08/24 09:59:54;;;;;;;2.53;1.70;;;20.50;99.90;;;;;;5077021;28;20442;-72
2021/08/24 10:02:40;;;;;;;2.77;1.53;;;20.50;99.90;;;;;;5076693;28;20979;-74
2021/08/24 10:05:10;;;;;;;3.80;1.80;;;20.50;99.90;;;;;;5077104;28;20446;-73
2021/08/24 10:07:41;;;;;;;4.00;1.63;;;20.60;99.90;;;;;;5076762;28;20477;-73
2021/08/24 10:10:22;;;;;;;2.20;2.00;;;20.60;99.90;;;;;;5076807;28;20458;-73
2021/08/24 10:12:52;;;;;;;1.83;1.37;;;20.60;99.90;;;;;;5076691;28;20601;-73
2021/08/24 10:15:33;;;;;;;6.50;2.67;;;20.70;99.90;;;;;;5077204;28;20478;-73
2021/08/24 10:18:05;;;;;;;2.50;2.20;;;20.60;99.90;;;;;;5078607;28;20548;-73
2021/08/24 10:20:34;;;;;;;2.33;1.83;;;20.50;99.90;;;;;;5077203;28;20450;-73
2021/08/24 10:23:11;;;;;;;1.70;1.50;;;20.40;99.90;;;;;;5076824;28;20482;-73
2021/08/24 10:25:44;;;;;;;2.20;1.73;;;20.50;99.90;;;;;;5076979;28;20453;-73
2021/08/24 10:28:18;;;;;;;2.43;1.50;;;20.60;99.90;;;;;;5076955;28;20461;-73
2021/08/24 10:30:51;;;;;;;2.40;1.60;;;20.60;99.90;;;;;;5076784;28;20449;-73
2021/08/24 10:33:30;;;;;;;3.40;2.20;;;20.70;99.90;;;;;;5076761;28;20601;-73
2021/08/24 10:36:03;;;;;;;2.80;1.80;;;20.70;99.90;;;;;;5078013;28;20453;-73
2021/08/24 10:38:42;;;;;;;2.80;2.10;;;20.70;99.90;;;;;;5076822;28;20449;-73
2021/08/24 10:41:22;;;;;;;3.00;1.90;;;20.90;99.90;;;;;;5076377;28;20445;-73
2021/08/24 10:43:57;;;;;;;2.30;1.80;;;21.00;99.90;;;;;;5079098;28;20973;-74
2021/08/24 10:46:25;;;;;;;2.33;2.00;;;21.20;99.90;;;;;;5078269;28;20442;-74
2021/08/24 10:48:52;;;;;;;2.40;1.90;;;21.40;99.90;;;;;;5077773;28;20832;-73
2021/08/24 10:51:33;;;;;;;2.70;2.00;;;21.50;95.50;;;;;;5079011;28;20454;-73
2021/08/24 10:54:17;;;;;;;2.70;2.07;;;21.60;94.30;;;;;;5078920;28;20438;-74
2021/08/24 10:56:49;;;;;;;2.80;2.10;;;21.70;32.10;;;;;;5079030;28;20503;-74
2021/08/24 10:59:32;;;;;;;2.47;1.73;;;21.70;21.00;;;;;;5077968;28;20736;-73
2021/08/24 11:02:05;;;;;;;2.90;2.03;;;21.80;1.00;;;;;;5080268;28;20446;-73
2021/08/24 11:04:52;;;;;;;2.13;1.47;;;21.80;1.00;;;;;;5080360;28;20438;-75
2021/08/24 11:07:32;;;;;;;2.17;1.80;;;21.90;1.00;;;;;;5079256;28;20453;-76
2021/08/24 11:10:13;;;;;;;3.40;2.13;;;22.00;1.00;;;;;;5079731;28;20465;-75
2021/08/24 11:12:52;;;;;;;3.63;1.97;;;22.10;1.00;;;;;;5077774;28;20505;-74
2021/08/24 11:15:35;;;;;;;3.00;2.13;;;22.30;1.00;;;;;;5075655;28;20448;-74
2021/08/24 11:18:07;;;;;;;2.90;2.30;;;22.40;1.00;;;;;;5076361;28;20545;-73
2021/08/24 11:20:40;;;;;;;2.33;1.90;;;22.50;1.00;;;;;;5075061;28;20458;-73
2021/08/24 11:23:18;;;;;;;2.70;2.30;;;22.60;1.00;;;;;;5075403;28;20810;-73
2021/08/24 11:25:50;;;;;;;2.90;2.27;;;22.70;1.00;;;;;;5077177;28;20551;-74
2021/08/24 11:28:29;;;;;;;4.33;2.07;;;22.90;1.00;;;;;;5076153;28;20503;-72
2021/08/24 11:31:02;;;;;;;2.83;2.10;;;23.20;1.00;;;;;;5075298;28;20517;-74
2021/08/24 11:33:40;;;;;;;2.20;2.00;;;23.60;1.00;;;;;;5074441;28;20874;-73
2021/08/24 11:36:16;;;;;;;4.67;2.47;;;24.30;1.00;;;;;;5074905;28;20442;-74
2021/08/24 11:38:45;;;;;;;3.57;2.27;;;25.20;1.00;;;;;;5074907;28;20790;-74
2021/08/24 11:41:16;;;;;;;4.90;2.93;;;26.10;1.00;;;;;;5074970;28;20458;-73
2021/08/24 11:43:46;;;;;;;2.90;2.60;;;26.60;1.00;;;;;;5074872;28;20473;-73
2021/08/24 11:46:22;;;;;;;8.43;2.10;;;26.60;1.00;;;;;;5074715;28;20481;-73
2021/08/24 11:48:52;;;;;;;2.67;2.00;;;26.40;1.00;;;;;;5074822;28;20450;-72
2021/08/24 11:51:23;;;;;;;2.90;1.97;;;26.50;1.00;;;;;;5074454;28;20450;-73
2021/08/24 11:53:54;;;;;;;3.43;2.37;;;27.00;1.00;;;;;;5074942;28;20512;-73
2021/08/24 11:56:33;;;;;;;3.37;2.50;;;27.60;1.00;;;;;;5074632;28;20507;-72
2021/08/24 11:59:02;;;;;;;4.23;2.83;;;28.60;1.00;;;;;;5074794;28;20442;-72
2021/08/24 12:01:32;;;;;;;3.37;2.67;;;29.40;1.00;;;;;;5074739;28;20577;-72
2021/08/24 12:04:03;;;;;;;10.33;2.93;;;29.40;1.00;;;;;;5074239;28;20938;-72
2021/08/24 12:06:35;;;;;;;3.23;2.63;;;28.90;1.00;;;;;;5074303;28;20443;-72
2021/08/24 12:09:03;;;;;;;2.90;2.40;;;28.70;1.00;;;;;;5073981;28;20867;-72
2021/08/24 12:11:43;;;;;;;4.37;3.60;;;28.40;1.00;;;;;;5074395;28;20458;-72
2021/08/24 12:14:26;;;;;;;2.97;2.60;;;27.60;1.00;;;;;;5074348;28;20477;-72
2021/08/24 12:17:01;;;;;;;4.00;2.57;;;27.50;1.00;;;;;;5074348;28;20566;-72
2021/08/24 12:19:30;;;;;;;4.43;2.60;;;27.90;1.00;;;;;;5074427;28;20438;-72
2021/08/24 12:21:59;;;;;;;4.60;2.90;;;28.60;1.00;;;;;;5074310;28;20473;-72
2021/08/24 12:24:53;;;;;;;3.10;2.80;;;29.50;1.00;;;;;;5074213;28;20481;-73
2021/08/24 12:28:00;;;;;;;5.70;3.10;;;30.30;1.00;;;;;;5074245;28;20452;-73
2021/08/24 12:30:33;;;;;;;4.47;2.73;;;30.80;1.00;;;;;;5074174;28;20793;-73
2021/08/24 12:33:36;;;;;;;4.50;3.13;;;31.10;1.00;;;;;;5074259;28;20889;-73
2021/08/24 12:36:49;;;;;;;3.53;2.60;;;30.60;1.00;;;;;;5074083;28;20778;-73
2021/08/24 12:39:36;;;;;;;10.70;3.20;;;30.30;1.00;;;;;;5074222;28;20442;-74
2021/08/24 12:42:22;;;;;;;2.97;2.73;;;30.70;1.00;;;;;;5073791;28;20484;-73
2021/08/24 12:44:52;;;;;;;7.20;3.00;;;31.30;1.00;;;;;;5073964;28;20462;-72
2021/08/24 12:47:42;;;;;;;5.03;2.50;;;31.90;1.00;;;;;;5073808;28;20508;-73
2021/08/24 12:50:48;;;;;;;8.20;4.90;;;32.40;1.00;;;;;;5073636;28;20749;-72
2021/08/24 12:53:44;;;;;;;4.43;2.77;;;32.90;1.00;;;;;;5073701;28;20783;-72
2021/08/24 12:56:36;;;;;;;5.87;3.20;;;33.50;1.00;;;;;;5073731;28;20442;-73
2021/08/24 12:59:04;;;;;;;6.20;3.03;;;33.40;1.00;;;;;;5073775;28;20454;-72
2021/08/24 13:01:31;;;;;;;3.40;3.10;;;33.70;1.00;;;;;;5073975;28;20887;-73
2021/08/24 13:04:07;;;;;;;3.17;2.87;;;33.70;1.00;;;;;;5073683;28;20808;-72
2021/08/24 13:06:37;;;;;;;3.40;3.10;;;33.60;1.00;;;;;;5073559;28;20449;-72
2021/08/24 13:09:29;;;;;;;4.73;3.07;;;33.60;1.00;;;;;;5073938;28;20462;-73